WMKPWMKN

Guest
Details From WMKP - Penang Intl
To WMKN - Kuala Terengganu Sultan Mahmud
Flight Number -
Tags generated
Created
Modified
Stats Distance 202 nm / 373 km
Max Altitude 13,200 ft / 4,023 m
Waypoints 4
Social Downloads 0
Likes 0
Share VATSIM

Download

Looking for another format? Having issues loading an existing format? Contact us
Advertisement - Login to hide

Notes

Basic altitude profile: - Ascent Rate: 2500ft/min - Ascent Speed: 250kts - Cruise Altitude: 35000ft - Cruise Speed: 420kts - Descent Rate: 1500ft/min - Descent Speed: 250kts Options: - Use NATs: yes - Use PACOTS: yes - Use low airways: yes - Use high airways: yes

Route

WMKP VPG B219 VKB WMKN

ID Type Via Altitude Latitude Longitude Leg Dist Tot Dist Heading (true) Name
O WMKP APT - 0 ft / 0 m 5.29714˚ 100.27686˚ - 0 nm - Penang Intl
VPG VOR - 500 ft / 152 m 5.27964˚ 100.26039˚ 1 nm 1 nm 223° / 223° PENANG VOR-DME
VKB VOR B219 (AWY-LO) 13,200 ft / 4,023 m 6.16342˚ 102.31419˚ 133 nm 135 nm 67° / 67° KOTA BHARU VOR-DME
O WMKN APT - 0 ft / 0 m 5.38264˚ 103.10336˚ 66 nm 201 nm 135° / 135° Kuala Terengganu Sultan Mahmud

Altitude Profile

Advertisement - Login to hide

Weather


0- 5 10 15 20 25 30 35+ Temperature / ° C

Clouds and Precipitation
Forecast for 2017-12-17 12:00 UTC. Updated an hour ago

Ground ~20,000 ft ~40,000 ft Winds

WMKP

Details ICAO WMKP (PEN)
Name Penang Intl
Region Malaysia (Peninsular Malaysia)
Timezone Asia/Kuala_Lumpur (UTC+8.0)
Stats Elevation 11 ft / 3 m (AMSL)
Location 5.297141° 100.276865°
Runways 1
Magnetic Variation 0.206° W

METAR

WMKP 171200Z 00000KT 9000 FEW017CB SCT140 BKN270 27/23 Q1010 RETS NOSIG

Decode

TAF

Not found

Departure Runways

ID Width Length Bearing (true) Bearing (mag) Surface Threshold Offset Overrun Length
04 150 ft / 46 m 11,042 ft / 3,366 m 42.02° 42.23° Asphalt 0 ft / 0 m 205 ft / 62 m
22 150 ft / 46 m 11,042 ft / 3,366 m 222.02° 222.23° Asphalt 0 ft / 0 m 205 ft / 62 m

WMKN

Details ICAO WMKN (TGG)
Name Kuala Terengganu Sultan Mahmud
Region Malaysia (Peninsular Malaysia)
Timezone Asia/Kuala_Lumpur (UTC+8.0)
Stats Elevation 21 ft / 6 m (AMSL)
Location 5.382638° 103.103361°
Runways 1
Magnetic Variation 0.038° W

METAR

WMKN 171200Z VRB07G17KT 9999 -RA FEW022 SCT150 BKN300 28/24 Q1012

Decode

TAF

Not found

Destination Runways

ID Width Length Bearing (true) Bearing (mag) Surface Threshold Offset Overrun Length
04 150 ft / 46 m 6,580 ft / 2,006 m 44.37° 44.41° Asphalt 0 ft / 0 m 230 ft / 70 m
22 150 ft / 46 m 6,580 ft / 2,006 m 224.37° 224.41° Asphalt 0 ft / 0 m 218 ft / 66 m

Popular Alternatives